createdAt,value
2023-02-27T00:00:44.207Z,-1.49
2023-02-27T00:01:44.158Z,-1.51
2023-02-27T00:02:44.202Z,-1.52
2023-02-27T00:03:44.526Z,-1.54
2023-02-27T00:04:44.130Z,-1.55
2023-02-27T00:05:44.124Z,-1.56
2023-02-27T00:06:44.110Z,-1.56
2023-02-27T00:07:44.255Z,-1.58
2023-02-27T00:08:44.114Z,-1.61
2023-02-27T00:09:44.058Z,-1.59
2023-02-27T00:10:44.046Z,-1.61
2023-02-27T00:11:44.039Z,-1.62
2023-02-27T00:12:44.196Z,-1.64
2023-02-27T00:13:44.022Z,-1.62
2023-02-27T00:14:44.013Z,-1.66
2023-02-27T00:15:44.028Z,-1.67
2023-02-27T00:16:43.973Z,-1.67
2023-02-27T00:17:43.980Z,-1.66
2023-02-27T00:18:43.954Z,-1.66
2023-02-27T00:19:43.948Z,-1.67
2023-02-27T00:20:43.931Z,-1.67
2023-02-27T00:21:43.924Z,-1.69
2023-02-27T00:22:43.911Z,-1.67
2023-02-27T00:23:43.935Z,-1.67
2023-02-27T00:24:43.892Z,-1.67
2023-02-27T00:25:43.856Z,-1.69
2023-02-27T00:26:43.861Z,-1.70
2023-02-27T00:27:43.896Z,-1.70
2023-02-27T00:28:43.834Z,-1.69
2023-02-27T00:29:43.819Z,-1.70
2023-02-27T00:30:44.006Z,-1.70
2023-02-27T00:31:44.078Z,-1.72
2023-02-27T00:32:43.777Z,-1.70
2023-02-27T00:33:43.767Z,-1.72
2023-02-27T00:34:43.758Z,-1.73
2023-02-27T00:35:43.747Z,-1.74
2023-02-27T00:36:43.911Z,-1.76
2023-02-27T00:37:43.726Z,-1.76
2023-02-27T00:38:43.731Z,-1.76
2023-02-27T00:39:43.681Z,-1.79
2023-02-27T00:40:43.881Z,-1.79
2023-02-27T00:41:43.682Z,-1.77
2023-02-27T00:42:43.657Z,-1.79
2023-02-27T00:43:43.641Z,-1.79
2023-02-27T00:44:43.634Z,-1.76
2023-02-27T00:45:43.783Z,-1.72
2023-02-27T00:46:43.819Z,-1.69
2023-02-27T00:47:43.581Z,-1.69
2023-02-27T00:48:43.575Z,-1.66
2023-02-27T00:49:43.578Z,-1.58
2023-02-27T00:50:43.563Z,-1.56
2023-02-27T00:51:43.713Z,-1.52
2023-02-27T00:52:43.528Z,-1.51
2023-02-27T00:53:43.512Z,-1.51
2023-02-27T00:54:43.507Z,-1.51
2023-02-27T00:55:43.484Z,-1.48
2023-02-27T00:56:43.658Z,-1.46
2023-02-27T00:57:43.509Z,-1.45
2023-02-27T00:58:43.467Z,-1.46
2023-02-27T00:59:43.437Z,-1.48
2023-02-27T01:00:43.432Z,-1.48
2023-02-27T01:01:43.577Z,-1.52
2023-02-27T01:02:43.428Z,-1.55
2023-02-27T01:03:43.389Z,-1.58
2023-02-27T01:04:43.380Z,-1.59
2023-02-27T01:05:43.368Z,-1.61
2023-02-27T01:06:43.543Z,-1.64
2023-02-27T01:07:43.352Z,-1.66
2023-02-27T01:08:43.337Z,-1.66
2023-02-27T01:09:43.329Z,-1.67
2023-02-27T01:10:43.306Z,-1.70
2023-02-27T01:11:43.459Z,-1.70
2023-02-27T01:12:43.472Z,-1.72
2023-02-27T01:13:43.272Z,-1.72
2023-02-27T01:14:43.268Z,-1.73
2023-02-27T01:15:43.238Z,-1.73
2023-02-27T01:16:43.294Z,-1.76
2023-02-27T01:17:43.226Z,-1.76
2023-02-27T01:18:43.226Z,-1.79
2023-02-27T01:19:43.190Z,-1.80
2023-02-27T01:20:43.196Z,-1.80
2023-02-27T01:21:43.340Z,-1.80
2023-02-27T01:22:43.158Z,-1.80
2023-02-27T01:23:43.335Z,-1.82
2023-02-27T01:24:43.138Z,-1.84
2023-02-27T01:25:43.117Z,-1.82
2023-02-27T01:26:43.129Z,-1.76
2023-02-27T01:27:43.282Z,-1.70
2023-02-27T01:28:43.087Z,-1.67
2023-02-27T01:29:43.075Z,-1.66
2023-02-27T01:30:43.267Z,-1.66
2023-02-27T01:31:43.177Z,-1.66
2023-02-27T01:32:43.269Z,-1.69
2023-02-27T01:33:43.041Z,-1.69
2023-02-27T01:34:43.016Z,-1.70
2023-02-27T01:35:42.995Z,-1.72
2023-02-27T01:36:42.985Z,-1.73
2023-02-27T01:37:43.156Z,-1.74
2023-02-27T01:38:42.969Z,-1.74
2023-02-27T01:39:42.954Z,-1.74
2023-02-27T01:40:42.953Z,-1.74
2023-02-27T01:41:42.935Z,-1.76
2023-02-27T01:42:42.912Z,-1.77
2023-02-27T01:43:42.903Z,-1.76
2023-02-27T01:44:42.882Z,-1.76
2023-02-27T01:45:42.922Z,-1.76
2023-02-27T01:46:43.039Z,-1.76
2023-02-27T01:47:42.859Z,-1.73
2023-02-27T01:48:42.848Z,-1.74
2023-02-27T01:49:42.842Z,-1.73
2023-02-27T01:50:42.821Z,-1.72
2023-02-27T01:51:42.975Z,-1.72
2023-02-27T01:52:42.805Z,-1.70
2023-02-27T01:53:42.786Z,-1.72
2023-02-27T01:54:42.777Z,-1.73
2023-02-27T01:55:42.756Z,-1.72
2023-02-27T01:56:42.917Z,-1.72
2023-02-27T01:57:42.726Z,-1.73
2023-02-27T01:58:42.741Z,-1.73
2023-02-27T01:59:42.696Z,-1.77
2023-02-27T02:00:42.686Z,-1.79
2023-02-27T02:01:42.868Z,-1.80
2023-02-27T02:02:42.736Z,-1.82
2023-02-27T02:03:42.655Z,-1.85
2023-02-27T02:04:42.714Z,-1.87
2023-02-27T02:05:42.625Z,-1.90
2023-02-27T02:06:42.626Z,-1.91
2023-02-27T02:07:42.775Z,-1.92
2023-02-27T02:08:42.606Z,-1.95
2023-02-27T02:09:42.582Z,-1.98
2023-02-27T02:10:42.575Z,-1.98
2023-02-27T02:11:42.559Z,-1.98
2023-02-27T02:12:42.717Z,-2.02
2023-02-27T02:13:42.550Z,-2.03
2023-02-27T02:14:42.526Z,-2.03
2023-02-27T02:15:42.503Z,-2.06
2023-02-27T02:16:42.550Z,-2.06
2023-02-27T02:17:42.654Z,-2.08
2023-02-27T02:18:42.481Z,-2.10
2023-02-27T02:19:42.460Z,-2.10
2023-02-27T02:20:42.451Z,-2.10
2023-02-27T02:21:42.436Z,-2.13
2023-02-27T02:22:42.602Z,-2.15
2023-02-27T02:23:42.403Z,-2.15
2023-02-27T02:24:42.407Z,-2.18
2023-02-27T02:25:42.382Z,-2.16
2023-02-27T02:26:42.381Z,-2.18
2023-02-27T02:27:42.540Z,-2.18
2023-02-27T02:28:42.538Z,-2.18
2023-02-27T02:29:42.347Z,-2.21
2023-02-27T02:30:42.397Z,-2.24
2023-02-27T02:31:42.399Z,-2.24
2023-02-27T02:32:42.310Z,-2.26
2023-02-27T02:33:42.290Z,-2.27
2023-02-27T02:34:42.465Z,-2.27
2023-02-27T02:35:42.262Z,-2.30
2023-02-27T02:36:42.252Z,-2.32
2023-02-27T02:37:42.235Z,-2.34
2023-02-27T02:38:42.421Z,-2.34
2023-02-27T02:39:42.214Z,-2.37
2023-02-27T02:40:42.214Z,-2.37
2023-02-27T02:41:42.199Z,-2.37
2023-02-27T02:42:42.164Z,-2.37
2023-02-27T02:43:42.337Z,-2.37
2023-02-27T02:44:42.143Z,-2.37
2023-02-27T02:45:42.153Z,-2.40
2023-02-27T02:46:42.128Z,-2.40
2023-02-27T02:47:42.292Z,-2.42
2023-02-27T02:48:42.103Z,-2.40
2023-02-27T02:49:42.101Z,-2.42
2023-02-27T02:50:42.094Z,-2.40
2023-02-27T02:51:42.080Z,-2.42
2023-02-27T02:52:42.222Z,-2.42
2023-02-27T02:53:42.051Z,-2.43
2023-02-27T02:54:42.025Z,-2.46
2023-02-27T02:55:42.031Z,-2.42
2023-02-27T02:56:42.013Z,-2.35
2023-02-27T02:57:42.182Z,-2.37
2023-02-27T02:58:41.975Z,-2.34
2023-02-27T02:59:41.970Z,-2.37
2023-02-27T03:00:41.963Z,-2.37
2023-02-27T03:01:41.967Z,-2.37
2023-02-27T03:02:41.932Z,-2.37
2023-02-27T03:03:41.940Z,-2.37
2023-02-27T03:04:41.981Z,-2.37
2023-02-27T03:05:41.898Z,-2.37
2023-02-27T03:06:41.888Z,-2.39
2023-02-27T03:07:41.936Z,-2.39
2023-02-27T03:08:41.852Z,-2.37
2023-02-27T03:09:41.847Z,-2.35
2023-02-27T03:10:41.857Z,-2.34
2023-02-27T03:11:41.818Z,-2.35
2023-02-27T03:12:41.818Z,-2.35
2023-02-27T03:13:41.797Z,-2.30
2023-02-27T03:14:41.807Z,-2.29
2023-02-27T03:15:41.962Z,-2.29
2023-02-27T03:16:41.758Z,-2.29
2023-02-27T03:17:41.745Z,-2.29
2023-02-27T03:18:41.735Z,-2.32
2023-02-27T03:19:41.723Z,-2.32
2023-02-27T03:20:41.904Z,-2.34
2023-02-27T03:21:41.714Z,-2.35
2023-02-27T03:22:41.692Z,-2.37
2023-02-27T03:23:41.677Z,-2.40
2023-02-27T03:24:41.654Z,-2.42
2023-02-27T03:25:41.645Z,-2.43
2023-02-27T03:26:41.811Z,-2.45
2023-02-27T03:27:41.629Z,-2.43
2023-02-27T03:28:41.609Z,-2.37
2023-02-27T03:29:41.598Z,-2.34
2023-02-27T03:30:41.659Z,-2.34
2023-02-27T03:31:41.637Z,-2.32
2023-02-27T03:32:41.563Z,-2.34
2023-02-27T03:33:41.535Z,-2.32
2023-02-27T03:34:41.526Z,-2.30
2023-02-27T03:35:41.516Z,-2.29
2023-02-27T03:36:41.708Z,-2.30
2023-02-27T03:37:41.664Z,-2.30
2023-02-27T03:38:41.483Z,-2.35
2023-02-27T03:39:41.488Z,-2.34
2023-02-27T03:40:41.456Z,-2.32
2023-02-27T03:41:41.442Z,-2.34
2023-02-27T03:42:41.625Z,-2.32
2023-02-27T03:43:41.611Z,-2.34
2023-02-27T03:44:41.415Z,-2.34
2023-02-27T03:45:41.401Z,-2.35
2023-02-27T03:46:41.400Z,-2.37
2023-02-27T03:47:41.376Z,-2.35
2023-02-27T03:48:41.631Z,-2.35
2023-02-27T03:49:41.341Z,-2.35
2023-02-27T03:50:41.508Z,-2.34
2023-02-27T03:51:41.317Z,-2.34
2023-02-27T03:52:41.315Z,-2.34
2023-02-27T03:53:41.297Z,-2.30
2023-02-27T03:54:41.298Z,-2.32
2023-02-27T03:55:41.447Z,-2.32
2023-02-27T03:56:41.258Z,-2.34
2023-02-27T03:57:41.248Z,-2.34
2023-02-27T03:58:41.240Z,-2.34
2023-02-27T03:59:41.230Z,-2.35
2023-02-27T04:00:41.237Z,-2.34
2023-02-27T04:01:41.296Z,-2.34
2023-02-27T04:02:41.222Z,-2.34
2023-02-27T04:03:41.182Z,-2.35
2023-02-27T04:04:41.169Z,-2.35
2023-02-27T04:05:41.147Z,-2.35
2023-02-27T04:06:41.156Z,-2.37
2023-02-27T04:07:41.147Z,-2.39
2023-02-27T04:08:41.114Z,-2.40
2023-02-27T04:09:41.104Z,-2.42
2023-02-27T04:10:41.098Z,-2.46
2023-02-27T04:11:41.100Z,-2.46
2023-02-27T04:12:41.092Z,-2.48
2023-02-27T04:13:41.065Z,-2.49
2023-02-27T04:14:41.043Z,-2.50
2023-02-27T04:15:41.032Z,-2.52
2023-02-27T04:16:41.034Z,-2.52
2023-02-27T04:17:41.181Z,-2.52
2023-02-27T04:18:41.172Z,-2.53
2023-02-27T04:19:40.972Z,-2.55
2023-02-27T04:20:40.962Z,-2.58
2023-02-27T04:21:40.951Z,-2.60
2023-02-27T04:22:40.943Z,-2.60
2023-02-27T04:23:41.091Z,-2.61
2023-02-27T04:24:40.921Z,-2.61
2023-02-27T04:25:40.908Z,-2.63
2023-02-27T04:26:40.902Z,-2.61
2023-02-27T04:27:40.874Z,-2.63
2023-02-27T04:28:41.047Z,-2.61
2023-02-27T04:29:40.853Z,-2.61
2023-02-27T04:30:40.854Z,-2.61
2023-02-27T04:31:40.886Z,-2.61
2023-02-27T04:32:40.942Z,-2.63
2023-02-27T04:33:41.002Z,-2.66
2023-02-27T04:34:40.803Z,-2.67
2023-02-27T04:35:40.783Z,-2.67
2023-02-27T04:36:40.783Z,-2.61
2023-02-27T04:37:40.756Z,-2.56
2023-02-27T04:38:40.769Z,-2.55
2023-02-27T04:39:40.762Z,-2.53
2023-02-27T04:40:40.735Z,-2.49
2023-02-27T04:41:40.712Z,-2.46
2023-02-27T04:42:40.702Z,-2.39
2023-02-27T04:43:40.693Z,-2.34
2023-02-27T04:44:40.853Z,-2.35
2023-02-27T04:45:40.667Z,-2.35
2023-02-27T04:46:40.666Z,-2.37
2023-02-27T04:47:40.665Z,-2.39
2023-02-27T04:48:40.632Z,-2.42
2023-02-27T04:49:40.792Z,-2.42
2023-02-27T04:50:40.619Z,-2.46
2023-02-27T04:51:40.614Z,-2.49
2023-02-27T04:52:40.583Z,-2.50
2023-02-27T04:53:40.571Z,-2.52
2023-02-27T04:54:40.757Z,-2.55
2023-02-27T04:55:40.730Z,-2.55
2023-02-27T04:56:40.540Z,-2.55
2023-02-27T04:57:40.513Z,-2.55
2023-02-27T04:58:40.522Z,-2.56
2023-02-27T04:59:40.508Z,-2.56
2023-02-27T05:00:40.678Z,-2.56
2023-02-27T05:01:40.484Z,-2.60
2023-02-27T05:02:40.555Z,-2.61
2023-02-27T05:03:40.461Z,-2.61
2023-02-27T05:04:40.452Z,-2.61
2023-02-27T05:05:40.421Z,-2.63
2023-02-27T05:06:40.425Z,-2.66
2023-02-27T05:07:40.398Z,-2.64
2023-02-27T05:08:40.397Z,-2.66
2023-02-27T05:09:40.369Z,-2.66
2023-02-27T05:10:40.364Z,-2.64
2023-02-27T05:11:40.523Z,-2.66
2023-02-27T05:12:40.342Z,-2.63
2023-02-27T05:13:40.313Z,-2.63
2023-02-27T05:14:40.314Z,-2.63
2023-02-27T05:15:40.331Z,-2.64
2023-02-27T05:16:40.521Z,-2.64
2023-02-27T05:17:40.293Z,-2.66
2023-02-27T05:18:40.266Z,-2.68
2023-02-27T05:19:40.253Z,-2.68
2023-02-27T05:20:40.251Z,-2.70
2023-02-27T05:21:40.431Z,-2.71
2023-02-27T05:22:40.209Z,-2.71
2023-02-27T05:23:40.204Z,-2.67
2023-02-27T05:24:40.190Z,-2.70
2023-02-27T05:25:40.170Z,-2.70
2023-02-27T05:26:40.329Z,-2.68
2023-02-27T05:27:40.156Z,-2.70
2023-02-27T05:28:40.159Z,-2.70
2023-02-27T05:29:40.309Z,-2.70
2023-02-27T05:30:40.138Z,-2.73
2023-02-27T05:31:40.168Z,-2.73
2023-02-27T05:32:40.162Z,-2.73
2023-02-27T05:33:40.076Z,-2.74
2023-02-27T05:34:40.086Z,-2.77
2023-02-27T05:35:40.092Z,-2.78
2023-02-27T05:36:40.054Z,-2.82
2023-02-27T05:37:40.195Z,-2.84
2023-02-27T05:38:40.023Z,-2.84
2023-02-27T05:39:40.185Z,-2.84
2023-02-27T05:40:39.996Z,-2.84
2023-02-27T05:41:39.972Z,-2.85
2023-02-27T05:42:39.971Z,-2.88
2023-02-27T05:43:39.950Z,-2.88
2023-02-27T05:44:39.950Z,-2.89
2023-02-27T05:45:39.951Z,-2.89
2023-02-27T05:46:40.091Z,-2.91
2023-02-27T05:47:39.928Z,-2.89
2023-02-27T05:48:39.878Z,-2.91
2023-02-27T05:49:39.877Z,-2.89
2023-02-27T05:50:39.874Z,-2.91
2023-02-27T05:51:39.866Z,-2.91
2023-02-27T05:52:39.849Z,-2.91
2023-02-27T05:53:39.827Z,-2.92
2023-02-27T05:54:39.815Z,-2.94
2023-02-27T05:55:39.828Z,-2.96
2023-02-27T05:56:39.794Z,-2.92
2023-02-27T05:57:39.948Z,-2.91
2023-02-27T05:58:39.762Z,-2.88
2023-02-27T05:59:39.761Z,-2.89
2023-02-27T06:00:39.740Z,-2.89
2023-02-27T06:01:39.730Z,-2.89
2023-02-27T06:02:39.890Z,-2.88
2023-02-27T06:03:39.746Z,-2.84
2023-02-27T06:04:39.748Z,-2.82
2023-02-27T06:05:39.681Z,-2.82
2023-02-27T06:06:39.666Z,-2.84
2023-02-27T06:07:39.675Z,-2.86
2023-02-27T06:08:39.645Z,-2.86
2023-02-27T06:09:39.636Z,-2.91
2023-02-27T06:10:39.635Z,-2.89
2023-02-27T06:11:39.619Z,-2.92
2023-02-27T06:12:39.596Z,-2.91
2023-02-27T06:13:41.823Z,-2.91
2023-02-27T06:14:39.565Z,-2.88
2023-02-27T06:15:39.575Z,-2.86
2023-02-27T06:16:39.596Z,-2.85
2023-02-27T06:17:39.722Z,-2.84
2023-02-27T06:18:39.517Z,-2.81
2023-02-27T06:19:39.514Z,-2.81
2023-02-27T06:20:39.494Z,-2.81
2023-02-27T06:21:39.486Z,-2.84
2023-02-27T06:22:39.679Z,-2.85
2023-02-27T06:23:39.462Z,-2.85
2023-02-27T06:24:39.453Z,-2.88
2023-02-27T06:25:39.452Z,-2.86
2023-02-27T06:26:39.423Z,-2.89
2023-02-27T06:27:39.601Z,-2.91
2023-02-27T06:28:39.392Z,-2.94
2023-02-27T06:29:39.391Z,-2.94
2023-02-27T06:30:39.417Z,-2.96
2023-02-27T06:31:39.380Z,-2.96
2023-02-27T06:32:39.637Z,-2.94
2023-02-27T06:33:39.339Z,-2.92
2023-02-27T06:34:39.325Z,-2.92
2023-02-27T06:35:39.359Z,-2.88
2023-02-27T06:36:39.298Z,-2.85
2023-02-27T06:37:39.309Z,-2.85
2023-02-27T06:38:39.264Z,-2.85
2023-02-27T06:39:39.279Z,-2.85
2023-02-27T06:40:39.256Z,-2.82
2023-02-27T06:41:39.412Z,-2.82
2023-02-27T06:42:39.213Z,-2.78
2023-02-27T06:43:39.216Z,-2.77
2023-02-27T06:44:39.223Z,-2.74
2023-02-27T06:45:39.189Z,-2.77
2023-02-27T06:46:39.526Z,-2.74
2023-02-27T06:47:39.401Z,-2.77
2023-02-27T06:48:39.147Z,-2.78
2023-02-27T06:49:39.318Z,-2.77
2023-02-27T06:50:39.141Z,-2.77
2023-02-27T06:51:39.190Z,-2.77
2023-02-27T06:52:39.107Z,-2.77
2023-02-27T06:53:39.097Z,-2.78
2023-02-27T06:54:39.257Z,-2.78
2023-02-27T06:55:39.073Z,-2.79
2023-02-27T06:56:39.055Z,-2.81
2023-02-27T06:57:39.051Z,-2.82
2023-02-27T06:58:39.039Z,-2.79
2023-02-27T06:59:39.016Z,-2.78
2023-02-27T07:00:39.225Z,-2.74
2023-02-27T07:01:39.016Z,-2.73
2023-02-27T07:02:38.974Z,-2.71
2023-02-27T07:03:38.975Z,-2.71
2023-02-27T07:04:38.996Z,-2.70
2023-02-27T07:05:39.114Z,-2.68
2023-02-27T07:07:35.711Z,-2.67
2023-02-27T07:07:39.968Z,-2.66
2023-02-27T07:08:38.903Z,-2.63
2023-02-27T07:09:39.903Z,-2.61
2023-02-27T07:10:39.062Z,-2.63
2023-02-27T07:11:38.886Z,-2.60
2023-02-27T07:12:39.177Z,-2.55
2023-02-27T07:13:38.845Z,-2.53
2023-02-27T07:14:38.852Z,-2.48
2023-02-27T07:15:38.837Z,-2.46
2023-02-27T07:16:38.814Z,-2.43
2023-02-27T07:17:38.996Z,-2.40
2023-02-27T07:18:38.780Z,-2.40
2023-02-27T07:19:38.770Z,-2.39
2023-02-27T07:20:38.769Z,-2.37
2023-02-27T07:21:38.748Z,-2.37
2023-02-27T07:22:38.918Z,-2.39
2023-02-27T07:23:38.730Z,-2.39
2023-02-27T07:24:38.721Z,-2.37
2023-02-27T07:25:38.701Z,-2.35
2023-02-27T07:26:38.684Z,-2.35
2023-02-27T07:27:38.871Z,-2.32
2023-02-27T07:28:38.909Z,-2.29
2023-02-27T07:29:38.638Z,-2.23
2023-02-27T07:30:38.637Z,-2.21
2023-02-27T07:31:38.722Z,-2.15
2023-02-27T07:32:38.796Z,-2.12
2023-02-27T07:33:38.586Z,-2.08
2023-02-27T07:34:38.599Z,-2.06
2023-02-27T07:35:38.669Z,-2.06
2023-02-27T07:36:38.578Z,-2.05
2023-02-27T07:37:38.749Z,-2.02
2023-02-27T07:38:38.536Z,-2.00
2023-02-27T07:39:38.519Z,-1.98
2023-02-27T07:40:38.511Z,-1.97
2023-02-27T07:41:38.506Z,-1.92
2023-02-27T07:42:38.676Z,-1.90
2023-02-27T07:43:38.661Z,-1.88
2023-02-27T07:44:38.472Z,-1.85
2023-02-27T07:45:38.626Z,-1.84
2023-02-27T07:46:38.534Z,-1.82
2023-02-27T07:47:38.480Z,-1.79
2023-02-27T07:48:38.416Z,-1.76
2023-02-27T07:49:38.406Z,-1.74
2023-02-27T07:50:38.557Z,-1.73
2023-02-27T07:51:38.561Z,-1.72
2023-02-27T07:52:38.381Z,-1.69
2023-02-27T07:53:38.355Z,-1.64
2023-02-27T07:54:38.349Z,-1.58
2023-02-27T07:55:38.335Z,-1.54
2023-02-27T07:56:38.615Z,-1.49
2023-02-27T07:57:38.306Z,-1.46
2023-02-27T07:58:38.476Z,-1.43
2023-02-27T07:59:38.288Z,-1.38
2023-02-27T08:00:38.450Z,-1.34
2023-02-27T08:01:38.257Z,-1.31
2023-02-27T08:02:38.300Z,-1.30
2023-02-27T08:03:38.405Z,-1.25
2023-02-27T08:04:38.314Z,-1.22
2023-02-27T08:05:38.211Z,-1.19
2023-02-27T08:06:38.222Z,-1.16
2023-02-27T08:07:38.196Z,-1.10
2023-02-27T08:08:38.360Z,-1.04
2023-02-27T08:09:38.161Z,-0.99
2023-02-27T08:10:38.152Z,-0.95
2023-02-27T08:11:38.134Z,-0.91
2023-02-27T08:12:38.120Z,-0.86
2023-02-27T08:14:39.110Z,-0.78
2023-02-27T08:15:38.096Z,-0.73
2023-02-27T08:16:38.138Z,-0.69
2023-02-27T08:17:38.063Z,-0.64
2023-02-27T08:18:38.392Z,-0.61
2023-02-27T08:19:38.029Z,-0.60
2023-02-27T08:20:38.041Z,-0.54
2023-02-27T08:21:38.028Z,-0.49
2023-02-27T08:22:38.009Z,-0.47
2023-02-27T08:23:38.159Z,-0.44
2023-02-27T08:24:37.982Z,-0.42
2023-02-27T08:25:37.983Z,-0.39
2023-02-27T08:26:37.952Z,-0.36
2023-02-27T08:27:37.939Z,-0.33
2023-02-27T08:28:37.953Z,-0.26
2023-02-27T08:29:37.918Z,-0.22
2023-02-27T08:30:37.904Z,-0.16
2023-02-27T08:31:37.900Z,-0.14
2023-02-27T08:32:37.883Z,-0.10
2023-02-27T08:33:38.031Z,-0.07
2023-02-27T08:34:38.022Z,-0.01
2023-02-27T08:35:37.844Z,0.04
2023-02-27T08:36:37.877Z,0.10
2023-02-27T08:37:37.818Z,0.14
2023-02-27T08:38:37.792Z,0.18
2023-02-27T08:39:37.789Z,0.24
2023-02-27T08:40:37.975Z,0.31
2023-02-27T08:41:37.768Z,0.35
2023-02-27T08:42:37.747Z,0.41
2023-02-27T08:43:37.737Z,0.46
2023-02-27T08:44:37.763Z,0.50
2023-02-27T08:45:37.764Z,0.55
2023-02-27T08:46:37.736Z,0.61
2023-02-27T08:47:37.689Z,0.69
2023-02-27T08:48:37.669Z,0.73
2023-02-27T08:49:37.671Z,0.84
2023-02-27T08:50:37.656Z,0.91
2023-02-27T08:51:37.815Z,0.96
2023-02-27T08:52:37.640Z,1.05
2023-02-27T08:53:37.642Z,1.11
2023-02-27T08:54:37.822Z,1.15
2023-02-27T08:55:37.584Z,1.23
2023-02-27T08:56:37.582Z,1.29
2023-02-27T08:57:37.562Z,1.34
2023-02-27T08:58:37.543Z,1.41
2023-02-27T08:59:37.714Z,1.47
2023-02-27T09:00:37.521Z,1.52
2023-02-27T09:01:37.521Z,1.59
2023-02-27T09:02:37.529Z,1.65
2023-02-27T09:03:37.499Z,1.70
2023-02-27T09:04:37.474Z,1.77
2023-02-27T09:05:37.470Z,1.83
2023-02-27T09:06:37.463Z,1.87
2023-02-27T09:07:37.441Z,1.91
2023-02-27T09:08:37.430Z,1.95
2023-02-27T09:09:37.418Z,2.00
2023-02-27T09:10:37.420Z,2.05
2023-02-27T09:11:38.788Z,2.10
2023-02-27T09:12:37.380Z,2.17
2023-02-27T09:13:37.370Z,2.20
2023-02-27T09:14:37.370Z,2.23
2023-02-27T09:15:37.341Z,2.28
2023-02-27T09:16:37.421Z,2.36
2023-02-27T09:17:37.359Z,2.45
2023-02-27T09:18:37.301Z,2.49
2023-02-27T09:19:37.474Z,2.56
2023-02-27T09:20:37.269Z,2.61
2023-02-27T09:21:37.277Z,2.72
2023-02-27T09:22:37.267Z,2.78
2023-02-27T09:23:37.264Z,2.84
2023-02-27T09:24:37.419Z,2.90
2023-02-27T09:25:37.226Z,3.00
2023-02-27T09:26:45.176Z,3.13
2023-02-27T09:27:38.220Z,3.20
2023-02-27T09:28:37.177Z,3.28
2023-02-27T09:29:37.357Z,3.36
2023-02-27T09:30:37.167Z,3.52
2023-02-27T09:31:37.165Z,3.55
2023-02-27T09:32:37.225Z,3.52
2023-02-27T09:33:37.132Z,3.52
2023-02-27T09:34:37.114Z,3.52
2023-02-27T09:35:37.150Z,3.57
2023-02-27T09:36:37.077Z,3.66
2023-02-27T09:37:37.083Z,3.79
2023-02-27T09:38:37.053Z,3.84
2023-02-27T09:39:37.045Z,3.86
2023-02-27T09:40:37.203Z,3.96
2023-02-27T09:41:37.022Z,4.08
2023-02-27T09:42:37.011Z,4.14
2023-02-27T09:43:36.990Z,4.22
2023-02-27T09:44:46.273Z,4.20
2023-02-27T09:45:38.162Z,4.16
2023-02-27T09:46:37.137Z,4.06
2023-02-27T09:47:36.957Z,4.00
2023-02-27T09:48:36.950Z,3.96
2023-02-27T09:49:36.910Z,3.98
2023-02-27T09:50:36.929Z,3.97
2023-02-27T09:51:36.902Z,3.94
2023-02-27T09:52:36.890Z,4.08
2023-02-27T09:53:36.880Z,4.32
2023-02-27T09:54:36.840Z,4.52
2023-02-27T09:55:36.841Z,4.60
2023-02-27T09:56:36.844Z,4.70
2023-02-27T09:57:37.641Z,4.78
2023-02-27T09:58:36.798Z,4.97
2023-02-27T09:59:36.822Z,5.07
2023-02-27T10:00:36.773Z,5.10
2023-02-27T10:01:37.141Z,5.12
2023-02-27T10:02:36.771Z,5.22
2023-02-27T10:03:36.817Z,5.07
2023-02-27T10:04:36.727Z,4.88
2023-02-27T10:05:36.719Z,4.67
2023-02-27T10:06:36.883Z,4.67
2023-02-27T10:07:36.701Z,4.70
2023-02-27T10:08:36.676Z,4.86
2023-02-27T10:09:36.710Z,5.13
2023-02-27T10:10:36.646Z,5.40
2023-02-27T10:11:36.678Z,5.58
2023-02-27T10:12:36.618Z,5.79
2023-02-27T10:13:36.615Z,6.11
2023-02-27T10:14:36.608Z,6.31
2023-02-27T10:15:36.616Z,6.36
2023-02-27T10:16:36.780Z,6.52
2023-02-27T10:17:36.749Z,6.69
2023-02-27T10:18:36.536Z,6.85
2023-02-27T10:19:36.545Z,7.02
2023-02-27T10:20:36.516Z,6.97
2023-02-27T10:21:36.522Z,6.85
2023-02-27T10:22:36.675Z,6.43
2023-02-27T10:23:36.486Z,6.12
2023-02-27T10:24:36.480Z,6.03
2023-02-27T10:25:36.466Z,5.79
2023-02-27T10:26:36.450Z,5.79
2023-02-27T10:27:36.617Z,5.89
2023-02-27T10:28:36.419Z,6.00
2023-02-27T10:29:36.598Z,6.21
2023-02-27T10:30:36.551Z,6.33
2023-02-27T10:31:36.464Z,6.51
2023-02-27T10:32:36.364Z,6.61
2023-02-27T10:33:36.370Z,6.80
2023-02-27T10:34:36.355Z,6.76
2023-02-27T10:35:36.395Z,6.74
2023-02-27T10:36:36.352Z,6.88
2023-02-27T10:37:36.302Z,6.99
2023-02-27T10:38:36.284Z,6.94
2023-02-27T10:39:36.474Z,6.95
2023-02-27T10:40:36.356Z,6.98
2023-02-27T10:41:36.293Z,6.98
2023-02-27T10:42:37.165Z,6.95
2023-02-27T10:43:36.240Z,6.98
2023-02-27T10:44:37.058Z,6.97
2023-02-27T10:45:37.920Z,6.92
2023-02-27T10:46:36.225Z,7.03
2023-02-27T10:47:36.198Z,7.12
2023-02-27T10:48:36.192Z,7.17
2023-02-27T10:49:36.164Z,7.34
2023-02-27T10:50:36.146Z,7.58
2023-02-27T10:51:36.335Z,7.82
2023-02-27T10:52:36.106Z,7.98
2023-02-27T10:53:36.111Z,8.07
2023-02-27T10:54:36.090Z,8.00
2023-02-27T10:55:36.077Z,7.64
2023-02-27T10:56:36.085Z,7.16
2023-02-27T10:57:36.045Z,7.07
2023-02-27T10:58:36.023Z,6.77
2023-02-27T10:59:36.847Z,6.59
2023-02-27T11:00:35.994Z,6.59
2023-02-27T11:01:36.219Z,6.69
2023-02-27T11:02:35.973Z,6.73
2023-02-27T11:03:35.976Z,6.51
2023-02-27T11:04:36.046Z,6.30
2023-02-27T11:05:36.013Z,6.17
2023-02-27T11:06:36.362Z,6.17
2023-02-27T11:07:35.971Z,6.15
2023-02-27T11:08:36.002Z,6.22
2023-02-27T11:09:35.956Z,6.38
2023-02-27T11:10:35.872Z,6.74
2023-02-27T11:11:36.045Z,6.99
2023-02-27T11:12:35.839Z,7.02
2023-02-27T11:13:35.884Z,6.92
2023-02-27T11:14:35.819Z,7.21
2023-02-27T11:15:35.851Z,7.48
2023-02-27T11:16:35.979Z,7.64
2023-02-27T11:17:35.789Z,7.57
2023-02-27T11:18:35.777Z,7.35
2023-02-27T11:19:35.760Z,7.17
2023-02-27T11:20:35.741Z,7.13
2023-02-27T11:21:35.729Z,7.02
2023-02-27T11:22:35.883Z,6.85
2023-02-27T11:23:35.701Z,6.58
2023-02-27T11:24:35.876Z,6.49
2023-02-27T11:25:35.682Z,6.36
2023-02-27T11:26:35.687Z,6.52
2023-02-27T11:27:35.653Z,6.80
2023-02-27T11:28:35.667Z,7.15
2023-02-27T11:29:35.818Z,7.20
2023-02-27T11:30:35.619Z,7.21
2023-02-27T11:31:35.651Z,7.24
2023-02-27T11:32:35.601Z,7.21
2023-02-27T11:33:35.582Z,7.24
2023-02-27T11:34:35.741Z,7.34
2023-02-27T11:35:35.601Z,6.99
2023-02-27T11:36:35.540Z,6.66
2023-02-27T11:37:35.533Z,6.40
2023-02-27T11:38:35.523Z,6.41
2023-02-27T11:39:35.682Z,6.46
2023-02-27T11:40:35.660Z,6.61
2023-02-27T11:41:35.492Z,6.97
2023-02-27T11:42:35.466Z,7.27
2023-02-27T11:43:35.450Z,7.21
2023-02-27T11:44:50.477Z,7.43
2023-02-27T11:46:04.275Z,7.72
2023-02-27T11:46:48.076Z,7.79
2023-02-27T11:47:36.487Z,7.42
2023-02-27T11:48:35.386Z,7.16
2023-02-27T11:49:35.378Z,6.92
2023-02-27T11:50:35.418Z,6.91
2023-02-27T11:51:35.352Z,7.06
2023-02-27T11:52:35.335Z,7.40
2023-02-27T11:53:35.327Z,7.83
2023-02-27T11:54:35.314Z,8.38
2023-02-27T11:55:35.318Z,8.83
2023-02-27T11:56:36.299Z,9.17
2023-02-27T11:57:35.281Z,9.57
2023-02-27T11:58:35.258Z,9.91
2023-02-27T11:59:35.246Z,9.68
2023-02-27T12:00:35.249Z,9.10
2023-02-27T12:01:35.217Z,8.71
2023-02-27T12:02:36.652Z,8.73
2023-02-27T12:03:35.235Z,9.14
2023-02-27T12:04:35.176Z,9.40
2023-02-27T12:05:35.196Z,9.69
2023-02-27T12:06:35.165Z,9.84
2023-02-27T12:07:35.152Z,9.38
2023-02-27T12:08:35.959Z,9.20
2023-02-27T12:09:35.116Z,9.10
2023-02-27T12:10:35.267Z,9.14
2023-02-27T12:11:35.093Z,9.38
2023-02-27T12:12:35.084Z,9.54
2023-02-27T12:13:35.064Z,9.23
2023-02-27T12:14:35.072Z,9.23
2023-02-27T12:15:35.224Z,9.46
2023-02-27T12:16:35.546Z,9.72
2023-02-27T12:17:35.202Z,9.86
2023-02-27T12:18:34.995Z,9.84
2023-02-27T12:19:34.996Z,9.76
2023-02-27T12:20:34.995Z,9.43
2023-02-27T12:21:34.964Z,9.18
2023-02-27T12:22:35.123Z,8.84
2023-02-27T12:23:34.956Z,8.81
2023-02-27T12:24:34.913Z,8.83
2023-02-27T12:25:34.935Z,8.96
2023-02-27T12:26:34.910Z,9.08
2023-02-27T12:27:34.900Z,9.17
2023-02-27T12:28:34.880Z,8.68
2023-02-27T12:29:35.044Z,8.62
2023-02-27T12:30:34.853Z,8.74
2023-02-27T12:31:34.916Z,8.66
2023-02-27T12:32:34.913Z,8.61
2023-02-27T12:33:34.807Z,8.20
2023-02-27T12:34:34.967Z,7.97
2023-02-27T12:35:34.817Z,8.04
2023-02-27T12:36:34.776Z,7.98
2023-02-27T12:37:34.744Z,8.00
2023-02-27T12:38:34.736Z,8.15
2023-02-27T12:39:34.726Z,8.23
2023-02-27T12:40:34.890Z,8.04
2023-02-27T12:41:34.704Z,7.48
2023-02-27T12:42:34.713Z,6.95
2023-02-27T12:43:34.673Z,6.88
2023-02-27T12:44:34.654Z,6.94
2023-02-27T12:45:34.872Z,7.07
2023-02-27T12:46:34.654Z,7.27
2023-02-27T12:47:34.622Z,7.46
2023-02-27T12:48:34.628Z,7.58
2023-02-27T12:49:34.606Z,7.67
2023-02-27T12:50:34.588Z,7.63
2023-02-27T12:51:34.582Z,7.53
2023-02-27T12:52:34.583Z,7.40
2023-02-27T12:53:34.557Z,7.05
2023-02-27T12:54:34.529Z,6.80
2023-02-27T12:55:34.522Z,6.62
2023-02-27T12:56:34.508Z,6.52
2023-02-27T12:57:34.488Z,6.51
2023-02-27T12:58:34.484Z,6.49
2023-02-27T12:59:34.466Z,6.54
2023-02-27T13:00:36.827Z,6.67
2023-02-27T13:01:34.657Z,6.91
2023-02-27T13:02:34.421Z,6.97